Time;durP1;ratioP1;P1;durP2;ratioP2;P2;SDS_P1;SDS_P2;PMS_P1;PMS_P2;Temp;Humidity;BMP_temperature;BMP_pressure;BME280_temperature;BME280_humidity;BME280_pressure;Samples;Min_cycle;Max_cycle;Signal;HPM_P1;HPM_P2
2022/08/06 00:00:46;;;;;;;7.22;0.60;;;14.10;99.90;;;;;;5007055;28;20044;-88
2022/08/06 00:03:14;;;;;;;3.85;0.73;;;14.10;99.90;;;;;;5004218;28;20489;-88
2022/08/06 00:05:40;;;;;;;8.07;1.60;;;14.00;99.90;;;;;;4994368;28;20026;-87
2022/08/06 00:08:07;;;;;;;3.20;1.30;;;14.00;99.90;;;;;;4994090;28;20102;-88
2022/08/06 00:10:32;;;;;;;5.45;1.05;;;13.90;99.90;;;;;;5007089;28;20022;-87
2022/08/06 00:13:00;;;;;;;4.03;0.80;;;13.90;99.90;;;;;;4994077;28;20160;-87
2022/08/06 00:15:27;;;;;;;8.23;1.33;;;13.90;99.90;;;;;;5006259;28;20112;-87
2022/08/06 00:17:52;;;;;;;4.78;0.80;;;13.80;99.90;;;;;;5013486;28;20029;-87
2022/08/06 00:21:00;;;;;;;2.30;0.90;;;13.80;99.90;;;;;;5012656;28;20026;-87
2022/08/06 00:23:25;;;;;;;3.17;0.95;;;13.80;99.90;;;;;;5011841;28;20463;-87
2022/08/06 00:26:44;;;;;;;2.45;0.90;;;13.80;99.90;;;;;;5005351;28;20030;-88
2022/08/06 00:29:22;;;;;;;4.03;1.20;;;13.70;99.90;;;;;;5004640;28;20372;-87
2022/08/06 00:31:47;;;;;;;4.18;1.13;;;13.70;99.90;;;;;;5026019;28;20030;-87
2022/08/06 00:34:13;;;;;;;6.55;1.30;;;13.60;99.90;;;;;;5013030;28;20381;-87
2022/08/06 00:37:27;;;;;;;3.30;1.08;;;13.60;99.90;;;;;;5004764;28;20548;-87
2022/08/06 00:39:53;;;;;;;2.00;0.82;;;13.60;99.90;;;;;;5013071;28;20121;-87
2022/08/06 00:42:22;;;;;;;3.17;1.08;;;13.60;99.90;;;;;;4996204;28;20105;-87
2022/08/06 00:44:47;;;;;;;2.58;0.95;;;13.60;99.90;;;;;;5007918;28;20061;-88
2022/08/06 00:48:05;;;;;;;2.15;1.10;;;13.60;99.90;;;;;;5006577;28;20453;-87
2022/08/06 00:50:31;;;;;;;5.88;0.82;;;13.60;99.90;;;;;;5001079;28;20387;-87
2022/08/06 00:53:22;;;;;;;3.70;1.08;;;13.50;99.90;;;;;;5002268;28;20083;-88
2022/08/06 00:55:47;;;;;;;1.83;0.75;;;13.50;99.90;;;;;;5003571;28;20022;-87
2022/08/06 00:58:13;;;;;;;6.93;1.15;;;13.40;99.90;;;;;;4995008;28;20386;-88
2022/08/06 01:00:40;;;;;;;5.88;0.88;;;13.40;99.90;;;;;;5001687;28;20040;-88
2022/08/06 01:03:06;;;;;;;1.33;0.93;;;13.40;99.90;;;;;;5007586;28;20105;-88
2022/08/06 01:05:32;;;;;;;1.95;1.10;;;13.40;99.90;;;;;;5012906;28;20505;-88
2022/08/06 01:08:09;;;;;;;2.80;1.10;;;13.40;99.90;;;;;;5006327;28;20022;-88
2022/08/06 01:10:34;;;;;;;0.88;0.70;;;13.30;99.90;;;;;;5008278;28;20073;-87
2022/08/06 01:13:00;;;;;;;3.15;1.00;;;13.30;99.90;;;;;;4995262;28;20038;-88
2022/08/06 01:15:37;;;;;;;2.03;0.98;;;13.30;99.90;;;;;;5012227;28;20034;-87
2022/08/06 01:18:11;;;;;;;3.95;0.80;;;13.20;99.90;;;;;;4996354;28;20517;-88
2022/08/06 01:21:07;;;;;;;3.85;1.55;;;13.30;99.90;;;;;;5008016;28;20027;-88
2022/08/06 01:23:57;;;;;;;10.02;1.08;;;13.30;99.90;;;;;;5008864;28;20041;-87
2022/08/06 01:27:05;;;;;;;1.23;0.75;;;13.20;99.90;;;;;;5011118;28;20036;-88
2022/08/06 01:30:03;;;;;;;6.38;0.85;;;13.20;99.90;;;;;;5008604;28;20501;-88
2022/08/06 01:32:35;;;;;;;1.73;0.70;;;13.20;99.90;;;;;;5014590;28;20019;-88
2022/08/06 01:35:08;;;;;;;2.50;0.75;;;13.20;99.90;;;;;;5012825;28;20066;-88
2022/08/06 01:37:43;;;;;;;3.10;0.70;;;13.10;99.90;;;;;;5016534;28;20018;-88
2022/08/06 01:40:18;;;;;;;1.38;0.75;;;13.10;99.90;;;;;;5002067;28;20478;-88
2022/08/06 01:42:44;;;;;;;1.90;0.90;;;13.10;99.90;;;;;;5014595;28;20437;-88
2022/08/06 01:45:46;;;;;;;5.20;0.98;;;13.10;99.90;;;;;;5008524;28;20140;-88
2022/08/06 01:48:19;;;;;;;4.60;1.73;;;13.00;99.90;;;;;;5007471;28;20018;-88
2022/08/06 01:51:19;;;;;;;1.70;0.70;;;13.00;99.90;;;;;;5015716;28;20021;-88
2022/08/06 01:53:45;;;;;;;4.85;1.10;;;13.00;99.90;;;;;;5004725;28;20505;-88
2022/08/06 01:56:34;;;;;;;4.10;1.20;;;13.00;99.90;;;;;;4996733;28;20030;-88
2022/08/06 01:59:03;;;;;;;10.75;1.80;;;13.00;99.90;;;;;;5011027;28;20030;-88
2022/08/06 02:01:38;;;;;;;7.88;1.27;;;13.00;99.90;;;;;;4999922;28;20026;-86
2022/08/06 02:04:05;;;;;;;2.90;0.80;;;13.00;99.90;;;;;;5015477;28;20367;-87
2022/08/06 02:06:40;;;;;;;9.43;1.45;;;13.00;99.90;;;;;;5014370;28;20033;-87
2022/08/06 02:09:23;;;;;;;7.93;1.10;;;12.90;99.90;;;;;;5014227;28;20081;-88
2022/08/06 02:11:55;;;;;;;6.32;1.58;;;13.00;99.90;;;;;;5015634;28;20568;-88
2022/08/06 02:14:24;;;;;;;3.13;1.20;;;12.90;99.90;;;;;;5014718;28;20033;-89
2022/08/06 02:16:51;;;;;;;7.57;1.30;;;13.00;99.90;;;;;;5015796;28;20026;-90
2022/08/06 02:19:21;;;;;;;7.00;1.30;;;13.00;99.90;;;;;;5015878;28;20045;-89
2022/08/06 02:21:48;;;;;;;5.68;1.20;;;12.90;99.90;;;;;;4996063;28;20426;-89
2022/08/06 02:24:14;;;;;;;6.72;1.00;;;13.00;99.90;;;;;;4994917;28;20033;-89
2022/08/06 02:26:54;;;;;;;2.30;1.08;;;13.00;99.90;;;;;;5013459;28;20034;-88
2022/08/06 02:29:23;;;;;;;5.70;1.10;;;13.00;99.90;;;;;;5015169;28;20045;-88
2022/08/06 02:31:49;;;;;;;8.93;1.25;;;13.00;99.90;;;;;;5014566;28;20537;-88
2022/08/06 02:34:40;;;;;;;3.15;1.45;;;12.90;99.90;;;;;;5013043;28;20034;-89
2022/08/06 02:37:18;;;;;;;5.20;0.93;;;12.90;99.90;;;;;;4995873;28;20031;-89
2022/08/06 02:39:55;;;;;;;1.90;0.80;;;12.90;99.90;;;;;;5014956;28;20025;-88
2022/08/06 02:42:30;;;;;;;2.42;1.05;;;12.90;99.90;;;;;;5013744;28;20036;-88
2022/08/06 02:45:19;;;;;;;2.15;1.00;;;12.90;99.90;;;;;;4995453;28;20042;-88
2022/08/06 02:47:56;;;;;;;2.58;1.00;;;12.90;99.90;;;;;;4996453;28;20085;-88
2022/08/06 02:50:48;;;;;;;6.13;1.00;;;12.90;99.90;;;;;;5013703;28;20413;-89
2022/08/06 02:53:17;;;;;;;2.67;1.00;;;12.90;99.90;;;;;;5013742;28;20529;-88
2022/08/06 02:56:03;;;;;;;2.47;1.00;;;12.80;99.90;;;;;;5014934;28;20539;-87
2022/08/06 02:58:47;;;;;;;5.78;0.77;;;12.80;99.90;;;;;;5013009;28;20034;-88
2022/08/06 03:01:48;;;;;;;2.42;1.13;;;12.70;99.90;;;;;;5003965;28;20030;-88
2022/08/06 03:04:15;;;;;;;9.10;1.27;;;12.70;99.90;;;;;;5005182;28;20017;-88
2022/08/06 03:06:46;;;;;;;1.65;0.80;;;12.70;99.90;;;;;;5013625;28;20030;-88
2022/08/06 03:09:14;;;;;;;7.10;1.00;;;12.60;99.90;;;;;;5012161;28;20033;-88
2022/08/06 03:11:41;;;;;;;2.15;1.05;;;12.60;99.90;;;;;;5013374;28;20447;-89
2022/08/06 03:14:08;;;;;;;2.42;1.15;;;12.60;99.90;;;;;;5012731;28;20026;-88
2022/08/06 03:16:38;;;;;;;2.60;1.23;;;12.60;99.90;;;;;;5003474;28;20030;-88
2022/08/06 03:19:05;;;;;;;3.88;1.17;;;12.60;99.90;;;;;;5013904;28;20029;-88
2022/08/06 03:21:33;;;;;;;2.70;1.00;;;12.50;99.90;;;;;;5013429;28;20037;-89
2022/08/06 03:24:00;;;;;;;6.90;1.17;;;12.50;99.90;;;;;;4998568;28;20026;-88
2022/08/06 03:26:29;;;;;;;3.47;1.25;;;12.50;99.90;;;;;;5014452;28;20037;-88
2022/08/06 03:28:57;;;;;;;5.47;1.35;;;12.40;99.90;;;;;;5007334;28;20046;-88
2022/08/06 03:31:24;;;;;;;2.95;1.25;;;12.40;99.90;;;;;;5013697;28;20109;-88
2022/08/06 03:33:51;;;;;;;4.93;1.17;;;12.40;99.90;;;;;;5012570;28;20026;-87
2022/08/06 03:36:18;;;;;;;3.97;1.10;;;12.40;99.90;;;;;;5013726;28;20025;-88
2022/08/06 03:38:55;;;;;;;5.93;1.10;;;12.30;99.90;;;;;;5000877;28;20091;-87
2022/08/06 03:41:25;;;;;;;2.63;0.88;;;12.30;99.90;;;;;;5003176;28;20474;-87
2022/08/06 03:44:10;;;;;;;8.07;1.10;;;12.30;99.90;;;;;;5011789;28;20029;-88
2022/08/06 03:46:53;;;;;;;2.88;1.05;;;12.30;99.90;;;;;;5003246;28;20037;-87
2022/08/06 03:49:24;;;;;;;6.47;1.17;;;12.30;99.90;;;;;;5006905;28;20113;-87
2022/08/06 03:51:54;;;;;;;1.40;1.13;;;12.30;99.90;;;;;;5005423;28;20022;-87
2022/08/06 03:54:27;;;;;;;3.60;1.10;;;12.30;99.90;;;;;;5007609;28;20117;-87
2022/08/06 03:56:57;;;;;;;3.60;1.15;;;12.20;99.90;;;;;;5009038;28;20110;-87
2022/08/06 03:59:26;;;;;;;1.25;0.80;;;12.30;99.90;;;;;;5011807;28;20187;-86
2022/08/06 04:01:52;;;;;;;0.80;0.80;;;12.30;99.90;;;;;;5011720;28;20030;-87
2022/08/06 04:04:20;;;;;;;2.53;1.05;;;12.30;99.90;;;;;;5011930;28;20079;-87
2022/08/06 04:06:46;;;;;;;0.90;0.80;;;12.20;99.90;;;;;;5011548;28;20033;-87
2022/08/06 04:09:20;;;;;;;4.40;1.10;;;12.20;99.90;;;;;;5013585;28;20125;-87
2022/08/06 04:11:46;;;;;;;4.78;1.25;;;12.20;99.90;;;;;;5013525;28;20018;-87
2022/08/06 04:14:12;;;;;;;2.40;1.10;;;12.20;99.90;;;;;;5011894;28;20026;-86
2022/08/06 04:16:52;;;;;;;1.88;1.00;;;12.20;99.90;;;;;;5012083;28;20478;-87
2022/08/06 04:19:23;;;;;;;8.80;1.30;;;12.20;99.90;;;;;;5012086;28;20514;-88
2022/08/06 04:21:50;;;;;;;6.40;2.25;;;12.20;99.90;;;;;;5013486;28;20033;-87
2022/08/06 04:24:15;;;;;;;3.75;1.30;;;12.20;99.90;;;;;;5012174;28;20033;-88
2022/08/06 04:26:50;;;;;;;4.57;1.30;;;12.20;99.90;;;;;;5012233;28;20029;-87
2022/08/06 04:29:20;;;;;;;4.72;1.38;;;12.20;99.90;;;;;;5010578;28;20062;-87
2022/08/06 04:31:49;;;;;;;2.55;1.25;;;12.20;99.90;;;;;;5004173;28;20476;-87
2022/08/06 04:34:23;;;;;;;3.53;1.40;;;12.20;99.90;;;;;;5011470;28;20061;-87
2022/08/06 04:36:49;;;;;;;2.08;1.20;;;12.20;99.90;;;;;;5011571;28;20022;-87
2022/08/06 04:39:16;;;;;;;5.35;1.65;;;12.20;99.90;;;;;;5012962;28;20104;-88
2022/08/06 04:41:42;;;;;;;4.75;1.67;;;12.30;99.90;;;;;;5012841;28;20025;-88
2022/08/06 04:44:08;;;;;;;5.30;1.80;;;12.30;99.90;;;;;;5012374;28;20033;-87
2022/08/06 04:46:34;;;;;;;3.67;1.75;;;12.40;99.90;;;;;;5009830;28;20456;-88
2022/08/06 04:49:08;;;;;;;2.40;1.15;;;12.50;99.90;;;;;;5012475;28;20018;-88
2022/08/06 04:51:34;;;;;;;5.10;1.50;;;12.50;99.90;;;;;;5012031;28;20022;-87
2022/08/06 04:54:19;;;;;;;4.28;1.52;;;12.60;99.90;;;;;;5009829;28;20022;-88
2022/08/06 04:56:46;;;;;;;4.72;1.55;;;12.70;99.90;;;;;;5011572;28;20026;-87
2022/08/06 04:59:27;;;;;;;5.60;1.77;;;12.80;99.90;;;;;;5005340;28;20030;-87
2022/08/06 05:01:52;;;;;;;6.88;1.27;;;12.90;99.90;;;;;;4996965;28;20030;-87
2022/08/06 05:04:23;;;;;;;9.32;1.50;;;12.90;99.90;;;;;;5000321;28;20023;-87
2022/08/06 05:06:54;;;;;;;3.47;1.30;;;13.00;99.90;;;;;;5010944;28;20023;-88
2022/08/06 05:09:30;;;;;;;7.70;1.75;;;13.10;99.90;;;;;;5011328;28;20022;-87
2022/08/06 05:12:05;;;;;;;3.10;1.25;;;13.20;99.90;;;;;;5011068;28;20053;-87
2022/08/06 05:14:50;;;;;;;8.57;1.30;;;13.30;99.90;;;;;;5002396;28;20022;-87
2022/08/06 05:17:19;;;;;;;7.20;2.10;;;13.30;99.90;;;;;;5006044;28;20042;-87
2022/08/06 05:19:59;;;;;;;7.13;1.70;;;13.40;99.90;;;;;;5011184;28;20049;-87
2022/08/06 05:22:28;;;;;;;5.47;1.95;;;13.50;99.90;;;;;;5007861;28;20021;-88
2022/08/06 05:24:54;;;;;;;5.25;1.80;;;13.50;99.90;;;;;;5009759;28;20052;-87
2022/08/06 05:27:24;;;;;;;12.52;2.75;;;13.60;99.90;;;;;;5010561;28;20026;-88
2022/08/06 05:29:50;;;;;;;5.97;2.35;;;13.60;99.90;;;;;;5010878;28;20042;-87
2022/08/06 05:32:16;;;;;;;9.52;2.42;;;13.70;99.90;;;;;;5006563;28;20033;-87
2022/08/06 05:34:47;;;;;;;10.45;3.15;;;13.70;99.90;;;;;;5004946;28;20027;-87
2022/08/06 05:37:13;;;;;;;12.30;2.85;;;13.70;99.90;;;;;;5010909;28;20025;-87
2022/08/06 05:39:40;;;;;;;12.80;3.33;;;13.80;99.90;;;;;;5007910;28;20413;-88
2022/08/06 05:42:05;;;;;;;11.55;3.05;;;13.90;99.90;;;;;;5011149;28;20029;-88
2022/08/06 05:44:32;;;;;;;11.10;3.40;;;13.80;99.90;;;;;;5006289;28;20743;-88
2022/08/06 05:47:06;;;;;;;7.47;2.55;;;13.90;99.90;;;;;;5006337;28;20461;-88
2022/08/06 05:49:44;;;;;;;10.30;3.22;;;14.00;99.90;;;;;;5009709;28;20386;-88
2022/08/06 05:52:22;;;;;;;9.15;2.63;;;14.00;99.90;;;;;;4993240;28;20022;-88
2022/08/06 05:55:14;;;;;;;9.27;2.05;;;14.10;99.90;;;;;;5008427;28;20064;-88
2022/08/06 05:58:02;;;;;;;5.68;2.00;;;14.10;99.90;;;;;;4993878;28;20030;-88
2022/08/06 06:00:32;;;;;;;4.90;2.15;;;14.20;99.90;;;;;;5011652;28;20025;-88
2022/08/06 06:03:12;;;;;;;4.97;1.85;;;14.20;99.90;;;;;;5010627;28;20072;-88
2022/08/06 06:05:39;;;;;;;2.13;1.40;;;14.20;99.90;;;;;;5007535;28;20118;-87
2022/08/06 06:08:14;;;;;;;10.48;2.40;;;14.20;99.90;;;;;;5009143;28;20018;-88
2022/08/06 06:10:41;;;;;;;4.85;1.45;;;14.30;99.90;;;;;;5000113;28;20018;-88
2022/08/06 06:13:10;;;;;;;8.40;1.70;;;14.30;99.90;;;;;;5001680;28;20117;-88
2022/08/06 06:15:44;;;;;;;4.80;1.55;;;14.30;99.90;;;;;;5007119;28;20240;-87
2022/08/06 06:18:32;;;;;;;8.98;1.83;;;14.40;99.90;;;;;;5005177;28;20128;-87
2022/08/06 06:21:08;;;;;;;5.55;1.20;;;14.40;99.90;;;;;;5010422;28;20045;-87
2022/08/06 06:23:33;;;;;;;;;;;14.50;99.90;;;;;;5015303;28;20100;-88
2022/08/06 06:26:33;;;;;;;3.55;1.40;;;14.50;99.90;;;;;;5013237;28;20321;-87
2022/08/06 06:29:08;;;;;;;5.45;1.35;;;14.50;99.90;;;;;;5013853;28;20046;-87
2022/08/06 06:31:36;;;;;;;7.10;2.53;;;14.60;99.90;;;;;;5013811;28;20061;-88
2022/08/06 06:34:33;;;;;;;1.40;0.70;;;14.60;99.90;;;;;;5013528;28;20545;-88
2022/08/06 06:37:14;;;;;;;1.85;1.02;;;14.60;99.90;;;;;;5013748;28;20030;-88
2022/08/06 06:39:43;;;;;;;9.55;1.33;;;14.70;99.90;;;;;;5014007;28;20036;-88
2022/08/06 06:42:24;;;;;;;6.47;1.08;;;14.80;99.90;;;;;;5014052;28;20033;-87
2022/08/06 06:45:24;;;;;;;4.38;1.10;;;14.80;99.90;;;;;;5014370;28;20032;-88
2022/08/06 06:48:10;;;;;;;2.10;1.10;;;14.80;99.90;;;;;;4999772;28;20101;-87
2022/08/06 06:50:54;;;;;;;4.03;1.48;;;14.90;99.90;;;;;;5015071;28;20022;-88
2022/08/06 06:53:41;;;;;;;12.05;1.25;;;14.90;99.90;;;;;;4998628;28;20033;-88
2022/08/06 06:56:08;;;;;;;6.80;1.30;;;14.90;99.90;;;;;;5015189;28;20448;-87
2022/08/06 06:59:03;;;;;;;4.43;0.90;;;15.00;99.90;;;;;;5013001;28;20036;-87
2022/08/06 07:01:31;;;;;;;4.63;0.90;;;15.00;99.90;;;;;;5012620;28;20512;-86
2022/08/06 07:04:02;;;;;;;9.93;0.95;;;15.10;99.90;;;;;;5013372;28;20493;-88
2022/08/06 07:06:48;;;;;;;4.28;1.13;;;15.20;99.90;;;;;;5012933;28;20117;-87
2022/08/06 07:09:17;;;;;;;8.77;1.08;;;15.20;99.90;;;;;;5009342;28;20382;-87
2022/08/06 07:11:44;;;;;;;2.83;0.63;;;15.30;99.90;;;;;;5012835;28;20478;-88
2022/08/06 07:14:38;;;;;;;2.05;0.68;;;15.30;99.90;;;;;;5008633;28;20025;-88
2022/08/06 07:17:06;;;;;;;6.13;1.05;;;15.30;99.90;;;;;;4993636;28;20065;-87
2022/08/06 07:19:32;;;;;;;3.60;0.73;;;15.40;99.90;;;;;;5008127;28;20029;-87
2022/08/06 07:22:19;;;;;;;9.55;1.25;;;15.40;99.90;;;;;;5009664;28;20030;-88
2022/08/06 07:24:45;;;;;;;;;;;15.50;99.90;;;;;;5012966;28;20040;-87
2022/08/06 07:27:22;;;;;;;1.25;0.60;;;15.60;99.90;;;;;;5010192;28;20289;-87
2022/08/06 07:29:57;;;;;;;6.22;1.30;;;15.60;99.90;;;;;;5014977;28;20045;-87
2022/08/06 07:32:24;;;;;;;7.22;1.00;;;15.60;99.90;;;;;;5009655;28;20542;-87
2022/08/06 07:34:56;;;;;;;2.13;0.60;;;15.60;99.90;;;;;;5010688;28;20060;-86
2022/08/06 07:37:24;;;;;;;8.10;1.27;;;15.60;99.90;;;;;;5012382;28;20022;-87
2022/08/06 07:40:04;;;;;;;6.13;0.77;;;15.60;99.90;;;;;;5007246;28;20026;-87
2022/08/06 07:42:50;;;;;;;11.98;1.00;;;15.60;99.90;;;;;;4993172;28;20023;-87
2022/08/06 07:45:17;;;;;;;3.97;1.00;;;15.60;99.90;;;;;;4996907;28;20455;-87
2022/08/06 07:47:44;;;;;;;3.50;1.25;;;15.60;99.90;;;;;;4994962;28;20061;-87
2022/08/06 07:50:12;;;;;;;2.08;0.80;;;15.60;99.90;;;;;;5007435;28;20029;-87
2022/08/06 07:52:42;;;;;;;6.63;0.68;;;15.60;99.90;;;;;;5005313;28;20026;-87
2022/08/06 07:55:10;;;;;;;5.50;0.80;;;15.70;99.90;;;;;;5001216;28;20568;-86
2022/08/06 07:57:37;;;;;;;14.13;2.05;;;15.70;99.90;;;;;;4994150;28;20041;-86
2022/08/06 08:00:08;;;;;;;6.38;1.60;;;15.70;99.90;;;;;;4994267;28;20030;-86
2022/08/06 08:02:34;;;;;;;1.23;0.60;;;15.80;99.90;;;;;;5011751;28;20473;-87
2022/08/06 08:07:51;;;;;;;3.13;0.70;;;15.90;99.90;;;;;;5009666;28;20033;-86
2022/08/06 08:10:18;;;;;;;4.68;1.00;;;15.90;99.90;;;;;;5011787;28;20026;-86
2022/08/06 08:12:49;;;;;;;6.15;0.93;;;15.90;99.90;;;;;;5011569;28;20068;-86
2022/08/06 08:15:15;;;;;;;4.35;1.13;;;15.90;99.90;;;;;;5008187;28;20029;-86
2022/08/06 08:17:40;;;;;;;5.72;1.20;;;16.00;99.90;;;;;;5013099;28;20041;-86
2022/08/06 08:20:28;;;;;;;8.02;0.88;;;16.10;99.90;;;;;;5013644;28;20105;-86
2022/08/06 08:22:54;;;;;;;3.05;0.75;;;16.20;99.90;;;;;;5012050;28;20550;-87
2022/08/06 08:25:19;;;;;;;4.88;0.85;;;16.20;99.90;;;;;;5012889;28;20117;-87
2022/08/06 08:27:51;;;;;;;1.17;0.70;;;16.20;99.90;;;;;;5001850;28;20025;-86
2022/08/06 08:30:19;;;;;;;4.93;1.38;;;16.30;99.90;;;;;;5011944;28;20057;-87
2022/08/06 08:32:44;;;;;;;1.80;0.90;;;16.30;99.90;;;;;;5001654;28;20022;-87
2022/08/06 08:35:15;;;;;;;5.95;0.82;;;16.40;99.90;;;;;;5010916;28;20048;-86
2022/08/06 08:37:43;;;;;;;2.03;1.02;;;16.50;99.90;;;;;;5004252;28;20021;-86
2022/08/06 08:40:10;;;;;;;2.28;0.95;;;16.50;99.90;;;;;;5000067;28;20033;-87
2022/08/06 08:42:48;;;;;;;8.27;1.38;;;16.40;99.90;;;;;;5011076;28;20034;-87
2022/08/06 08:45:15;;;;;;;2.67;0.88;;;16.40;99.90;;;;;;5012303;28;20034;-86
2022/08/06 08:47:46;;;;;;;3.95;1.00;;;16.40;99.90;;;;;;5012753;28;20096;-86
2022/08/06 08:50:15;;;;;;;5.82;1.17;;;16.30;99.90;;;;;;5012587;28;20032;-86
2022/08/06 08:52:43;;;;;;;4.20;0.60;;;16.30;99.90;;;;;;5011390;28;20390;-87
2022/08/06 08:55:11;;;;;;;3.85;0.77;;;16.30;99.90;;;;;;5012660;28;20029;-86
2022/08/06 08:57:39;;;;;;;7.10;1.20;;;16.40;99.90;;;;;;5012121;28;20049;-86
2022/08/06 09:00:06;;;;;;;6.53;1.02;;;16.60;99.90;;;;;;5006888;28;20380;-86
2022/08/06 09:02:32;;;;;;;5.10;0.93;;;16.70;99.90;;;;;;5011056;28;20030;-87
2022/08/06 09:04:59;;;;;;;7.60;0.90;;;16.70;99.90;;;;;;5010507;28;20018;-87
2022/08/06 09:07:39;;;;;;;2.97;0.70;;;16.80;99.90;;;;;;5012050;28;20018;-86
2022/08/06 09:10:07;;;;;;;5.60;0.73;;;16.80;99.90;;;;;;5013084;28;20029;-86
2022/08/06 09:12:41;;;;;;;2.22;0.68;;;16.90;99.90;;;;;;5010433;28;20022;-86
2022/08/06 09:15:07;;;;;;;7.30;1.15;;;16.90;99.90;;;;;;4994926;28;20022;-86
2022/08/06 09:20:55;;;;;;;5.57;1.67;;;17.00;99.90;;;;;;4996252;28;20025;-86
2022/08/06 09:23:20;;;;;;;1.98;0.82;;;17.00;99.90;;;;;;5012090;28;20022;-86
2022/08/06 09:25:51;;;;;;;4.15;0.95;;;17.10;99.90;;;;;;5009312;28;20437;-86
2022/08/06 09:28:31;;;;;;;2.13;0.65;;;17.20;99.90;;;;;;5011006;28;20037;-86
2022/08/06 09:31:08;;;;;;;3.83;0.88;;;17.10;99.90;;;;;;4991560;28;20430;-85
2022/08/06 09:33:58;;;;;;;4.15;0.90;;;17.20;99.90;;;;;;4996468;28;20020;-85
2022/08/06 09:36:24;;;;;;;2.80;0.60;;;17.20;99.90;;;;;;5011426;28;20029;-85
2022/08/06 09:39:20;;;;;;;5.07;1.23;;;17.20;99.90;;;;;;5011160;28;20467;-86
2022/08/06 09:41:47;;;;;;;3.40;1.02;;;17.20;99.90;;;;;;5011769;28;20496;-85
2022/08/06 09:44:13;;;;;;;1.38;0.60;;;17.20;99.90;;;;;;5011053;28;20030;-86
2022/08/06 09:46:41;;;;;;;4.97;1.10;;;17.10;99.90;;;;;;5010359;28;20041;-86
2022/08/06 09:49:26;;;;;;;7.93;1.13;;;17.10;99.90;;;;;;5009317;28;21321;-85
2022/08/06 09:52:22;;;;;;;0.90;0.40;;;17.10;99.90;;;;;;5009232;28;20037;-86
2022/08/06 09:54:48;;;;;;;2.90;1.00;;;17.10;99.90;;;;;;4994842;28;20019;-86
2022/08/06 09:57:14;;;;;;;3.97;0.98;;;17.30;99.90;;;;;;5012342;28;20029;-86
2022/08/06 09:59:47;;;;;;;2.78;0.70;;;17.30;99.90;;;;;;5013756;28;20030;-86
2022/08/06 10:02:21;;;;;;;3.35;0.80;;;17.50;99.90;;;;;;5001716;28;20048;-85
2022/08/06 10:04:48;;;;;;;5.63;0.80;;;17.50;99.90;;;;;;5015405;28;20022;-86
2022/08/06 10:07:16;;;;;;;3.17;0.70;;;17.50;99.90;;;;;;5015799;28;20358;-85
2022/08/06 10:09:53;;;;;;;1.92;0.60;;;17.50;99.90;;;;;;5016212;28;20022;-86
2022/08/06 10:12:21;;;;;;;3.10;0.60;;;17.40;99.90;;;;;;5015038;28;20101;-86
2022/08/06 10:14:46;;;;;;;2.50;0.95;;;17.50;99.90;;;;;;5015104;28;20515;-85
2022/08/06 10:17:18;;;;;;;1.45;0.60;;;17.60;99.90;;;;;;5012431;28;20033;-85
2022/08/06 10:20:08;;;;;;;4.38;1.25;;;17.60;99.90;;;;;;5011393;28;20496;-86
2022/08/06 10:22:34;;;;;;;3.00;0.55;;;17.70;99.90;;;;;;5014801;28;20037;-86
2022/08/06 10:25:02;;;;;;;3.65;0.65;;;17.70;99.90;;;;;;5012914;28;20026;-86
2022/08/06 10:27:35;;;;;;;3.65;0.63;;;17.80;99.90;;;;;;5013587;28;20022;-86
2022/08/06 10:30:07;;;;;;;2.35;1.25;;;17.90;99.90;;;;;;5014280;28;20037;-86
2022/08/06 10:33:08;;;;;;;2.30;0.40;;;18.00;99.90;;;;;;5013479;28;20022;-86
2022/08/06 10:36:12;;;;;;;1.38;0.40;;;18.10;99.90;;;;;;5006177;28;20038;-86
2022/08/06 10:38:42;;;;;;;1.77;0.60;;;18.20;99.90;;;;;;5015220;28;20473;-88
2022/08/06 10:41:15;;;;;;;4.65;0.80;;;18.20;99.90;;;;;;5015126;28;20029;-84
2022/08/06 10:43:41;;;;;;;5.65;0.73;;;18.30;99.90;;;;;;5013559;28;20076;-87
2022/08/06 10:46:09;;;;;;;4.63;0.85;;;18.50;99.90;;;;;;5007561;28;20030;-87
2022/08/06 10:48:37;;;;;;;2.00;0.70;;;18.60;99.90;;;;;;5002722;28;20033;-86
2022/08/06 10:51:09;;;;;;;1.25;0.60;;;18.50;99.90;;;;;;5012529;28;20111;-85
2022/08/06 10:53:41;;;;;;;0.38;0.30;;;18.50;99.90;;;;;;5004606;28;20053;-87
2022/08/06 10:56:08;;;;;;;0.70;0.43;;;18.50;99.90;;;;;;5009404;28;20125;-85
2022/08/06 10:58:50;;;;;;;2.58;0.43;;;18.40;99.90;;;;;;5007228;28;20036;-85
2022/08/06 11:01:57;;;;;;;1.50;0.43;;;18.30;99.90;;;;;;5000753;28;20117;-86
2022/08/06 11:04:43;;;;;;;1.88;0.50;;;18.30;99.90;;;;;;5014173;28;20478;-86
2022/08/06 11:07:45;;;;;;;2.13;0.60;;;18.30;99.90;;;;;;5012232;28;20037;-86
2022/08/06 11:10:38;;;;;;;3.65;0.73;;;18.30;99.90;;;;;;5013476;28;20029;-86
2022/08/06 11:13:18;;;;;;;1.27;0.43;;;18.60;99.90;;;;;;5012046;28;20053;-86
2022/08/06 11:15:44;;;;;;;0.98;0.43;;;18.80;99.90;;;;;;5013535;28;20057;-86
2022/08/06 11:18:19;;;;;;;3.42;0.68;;;18.90;98.30;;;;;;5011435;28;20060;-86
2022/08/06 11:20:49;;;;;;;3.13;0.57;;;18.90;97.70;;;;;;5004462;28;20030;-86
2022/08/06 11:23:15;;;;;;;1.40;0.40;;;18.80;98.60;;;;;;5004754;28;20482;-86
2022/08/06 11:26:31;;;;;;;3.65;0.88;;;18.70;99.90;;;;;;5012292;28;20121;-86
2022/08/06 11:28:58;;;;;;;5.60;0.75;;;18.60;99.90;;;;;;4951623;28;20050;-87
2022/08/06 11:31:51;;;;;;;2.03;0.57;;;18.50;99.90;;;;;;5007082;28;20057;-87
2022/08/06 11:34:20;;;;;;;2.65;0.73;;;18.50;99.30;;;;;;5011913;28;20026;-88
2022/08/06 11:37:00;;;;;;;0.75;0.50;;;18.50;98.10;;;;;;5003730;28;20022;-86
2022/08/06 11:39:27;;;;;;;3.25;0.82;;;18.50;99.90;;;;;;5010437;28;20034;-87
2022/08/06 11:42:44;;;;;;;3.03;0.52;;;18.50;99.90;;;;;;5010938;28;20034;-86
2022/08/06 11:45:11;;;;;;;2.63;0.73;;;18.60;99.90;;;;;;5000634;28;20113;-86
2022/08/06 11:48:14;;;;;;;4.43;0.70;;;18.70;99.90;;;;;;5014249;28;20117;-86
2022/08/06 11:50:39;;;;;;;1.33;0.40;;;18.90;99.90;;;;;;5007787;28;20029;-86
2022/08/06 11:53:05;;;;;;;3.70;0.55;;;19.00;99.90;;;;;;4998099;28;20034;-86
2022/08/06 11:56:08;;;;;;;2.78;0.70;;;18.90;99.90;;;;;;5007136;28;20030;-86
2022/08/06 11:58:34;;;;;;;4.40;0.63;;;18.80;97.50;;;;;;5000941;28;20026;-86
2022/08/06 12:01:01;;;;;;;0.85;0.40;;;18.70;99.20;;;;;;5004205;28;20032;-87
2022/08/06 12:03:38;;;;;;;1.83;0.50;;;18.60;99.90;;;;;;5011115;28;20034;-86
2022/08/06 12:06:27;;;;;;;3.33;0.70;;;18.60;99.90;;;;;;5010810;28;20030;-87
2022/08/06 12:09:12;;;;;;;2.08;0.45;;;18.60;99.90;;;;;;5011258;28;20124;-86
2022/08/06 12:11:43;;;;;;;3.28;0.50;;;18.70;98.00;;;;;;5006037;28;20022;-87
2022/08/06 12:14:40;;;;;;;1.65;0.30;;;18.80;97.80;;;;;;5010884;28;20073;-87
2022/08/06 12:17:10;;;;;;;2.28;0.70;;;18.90;97.80;;;;;;5009563;28;20037;-87
2022/08/06 12:19:45;;;;;;;6.80;0.80;;;19.20;94.90;;;;;;5004500;28;20023;-86
2022/08/06 12:22:14;;;;;;;0.98;0.38;;;19.40;91.00;;;;;;5005624;28;20034;-86
2022/08/06 12:24:44;;;;;;;2.42;0.75;;;19.40;91.30;;;;;;5013066;28;20088;-87
2022/08/06 12:27:11;;;;;;;2.42;0.40;;;19.30;91.40;;;;;;5010303;28;20033;-86
2022/08/06 12:29:37;;;;;;;2.13;0.47;;;19.30;94.50;;;;;;5008974;28;20819;-86
2022/08/06 12:32:21;;;;;;;1.33;0.57;;;19.20;93.30;;;;;;5012203;28;20030;-86
2022/08/06 12:34:48;;;;;;;3.03;0.93;;;19.20;93.50;;;;;;5002726;28;20494;-86
2022/08/06 12:37:14;;;;;;;0.77;0.47;;;19.30;92.70;;;;;;5012949;28;20435;-86
2022/08/06 12:45:59;;;;;;;4.38;0.80;;;19.50;92.10;;;;;;5009379;28;20053;-85
2022/08/06 12:48:25;;;;;;;4.30;0.60;;;19.50;91.30;;;;;;4997986;28;20021;-86
2022/08/06 12:51:06;;;;;;;5.30;0.52;;;19.50;86.60;;;;;;5006839;28;20072;-86
2022/08/06 12:53:32;;;;;;;1.05;0.60;;;19.50;87.00;;;;;;5010500;28;20025;-87
2022/08/06 12:56:03;;;;;;;1.88;0.60;;;19.50;89.80;;;;;;5006807;28;20037;-87
2022/08/06 12:58:36;;;;;;;1.60;0.45;;;19.60;90.70;;;;;;5008300;28;20033;-86
2022/08/06 13:01:04;;;;;;;5.60;0.68;;;19.80;84.10;;;;;;5008156;28;20475;-86
2022/08/06 13:03:32;;;;;;;2.65;0.50;;;20.10;76.30;;;;;;5011835;28;20038;-87
2022/08/06 13:06:00;;;;;;;3.55;0.90;;;20.20;79.70;;;;;;5005005;28;20030;-87
2022/08/06 13:08:27;;;;;;;0.43;0.43;;;20.30;75.10;;;;;;5012013;28;20024;-86
2022/08/06 13:10:56;;;;;;;4.53;0.82;;;20.20;78.30;;;;;;5010079;28;20023;-86
2022/08/06 13:13:33;;;;;;;1.23;0.40;;;20.20;78.60;;;;;;5002554;28;20397;-86
2022/08/06 13:16:01;;;;;;;5.15;0.57;;;20.10;77.30;;;;;;5002771;28;20034;-86
2022/08/06 13:19:15;;;;;;;3.30;0.45;;;20.00;75.70;;;;;;5011271;28;20482;-85
2022/08/06 13:21:58;;;;;;;2.28;0.50;;;19.90;73.20;;;;;;4994754;28;20041;-86
2022/08/06 13:24:28;;;;;;;1.58;0.45;;;19.90;76.10;;;;;;5009314;28;20083;-86
2022/08/06 13:27:37;;;;;;;1.67;0.47;;;19.90;74.40;;;;;;5004349;28;20030;-85
2022/08/06 13:30:18;;;;;;;3.13;0.40;;;20.10;80.60;;;;;;5015411;28;20478;-86
2022/08/06 13:32:43;;;;;;;3.92;0.50;;;20.50;75.40;;;;;;5015795;28;20037;-85
2022/08/06 13:35:10;;;;;;;2.35;0.68;;;20.80;73.40;;;;;;5008438;28;20022;-85
2022/08/06 13:37:52;;;;;;;2.85;0.75;;;20.80;70.90;;;;;;5015672;28;20026;-86